THY877 FOOL-LTFM
Flight info
| Callsign | THY877 |
|---|---|
| Flight time | N/A |
| Altitude | 33000 |
| Route | BATA2N BTA UG857 DLA/N0470F360 UR854 KOKAM UA604 OBUDU DCT JOS UA604 AS UR978 BERTI/N0459F370 UB727 IMN M600 ZAW/N0452F380 M600 SARKI/N0452F370 DCT ASKOT/N0450F380 DCT DINOB/N0449F390 DCT PEREN UN644 DIGTI T162 DRAMO |
| Aircraft | B38M/M-SDE1FGHILORVWXY/HB1 |
Departure
| Time | 2026-05-07 12:57 |
|---|---|
| Airport | Libreville Leon M'ba International Airport (FOOL) |
Arrival
| Time | N/A |
|---|---|
| Airport | İstanbul Airport (LTFM) |
| Time | Latitude | Longitude | Altitude | Speed | Heading |
|---|---|---|---|---|---|
| 2026-05-07 12:06 | 0.45706 | 9.41093 | 51 ft | 0 kts | 226° |
| 2026-05-07 12:45 | 0.45712 | 9.41099 | 51 ft | 2 kts | 226° |
| 2026-05-07 12:45 | 0.45722 | 9.41109 | 51 ft | 2 kts | 226° |
| 2026-05-07 12:46 | 0.45732 | 9.41120 | 51 ft | 2 kts | 226° |
| 2026-05-07 12:46 | 0.45742 | 9.41130 | 51 ft | 2 kts | 226° |
| 2026-05-07 12:46 | 0.45749 | 9.41137 | 51 ft | 1 kts | 226° |
| 2026-05-07 12:46 | 0.45760 | 9.41146 | 51 ft | 2 kts | 204° |
| 2026-05-07 12:47 | 0.45774 | 9.41151 | 51 ft | 1 kts | 186° |
| 2026-05-07 12:47 | 0.45780 | 9.41151 | 51 ft | 1 kts | 180° |
| 2026-05-07 12:47 | 0.45782 | 9.41151 | 51 ft | 0 kts | 181° |
| 2026-05-07 12:51 | 0.45759 | 9.41152 | 51 ft | 5 kts | 172° |
| 2026-05-07 12:52 | 0.45709 | 9.41171 | 51 ft | 9 kts | 156° |
| 2026-05-07 12:52 | 0.45634 | 9.41207 | 51 ft | 14 kts | 154° |
| 2026-05-07 12:52 | 0.45530 | 9.41256 | 51 ft | 18 kts | 153° |
| 2026-05-07 12:52 | 0.45419 | 9.41314 | 51 ft | 15 kts | 136° |
| 2026-05-07 12:53 | 0.45427 | 9.41403 | 51 ft | 12 kts | 66° |
| 2026-05-07 12:53 | 0.45398 | 9.41456 | 51 ft | 8 kts | 155° |
| 2026-05-07 12:53 | 0.45321 | 9.41491 | 51 ft | 18 kts | 156° |
| 2026-05-07 12:53 | 0.45175 | 9.41558 | 51 ft | 23 kts | 155° |
| 2026-05-07 12:54 | 0.45036 | 9.41627 | 51 ft | 21 kts | 152° |
| 2026-05-07 12:54 | 0.44903 | 9.41691 | 53 ft | 22 kts | 155° |
| 2026-05-07 12:54 | 0.44762 | 9.41757 | 54 ft | 21 kts | 154° |
| 2026-05-07 12:54 | 0.44686 | 9.41768 | 54 ft | 7 kts | 197° |
| 2026-05-07 12:55 | 0.44651 | 9.41767 | 54 ft | 3 kts | 125° |
| 2026-05-07 12:55 | 0.44649 | 9.41792 | 54 ft | 3 kts | 79° |
| 2026-05-07 12:55 | 0.44659 | 9.41804 | 54 ft | 1 kts | 13° |
| 2026-05-07 12:55 | 0.44674 | 9.41802 | 54 ft | 1 kts | 336° |
| 2026-05-07 12:56 | 0.44675 | 9.41801 | 54 ft | 0 kts | 333° |
| 2026-05-07 12:56 | 0.44892 | 9.41695 | 53 ft | 71 kts | 334° |
| 2026-05-07 12:57 | 0.45545 | 9.41379 | 51 ft | 133 kts | 335° |
| 2026-05-07 12:57 | 0.46540 | 9.40898 | 60 ft | 181 kts | 333° |
| 2026-05-07 12:57 | 0.47759 | 9.40314 | 352 ft | 201 kts | 334° |
| 2026-05-07 12:57 | 0.49083 | 9.39698 | 941 ft | 214 kts | 335° |
| 2026-05-07 12:58 | 0.50412 | 9.39112 | 1829 ft | 207 kts | 337° |
| 2026-05-07 12:58 | 0.51724 | 9.38511 | 2335 ft | 215 kts | 335° |
| 2026-05-07 12:58 | 0.53184 | 9.38033 | 2679 ft | 228 kts | 358° |
| 2026-05-07 12:58 | 0.54740 | 9.38455 | 3042 ft | 240 kts | 32° |
| 2026-05-07 12:59 | 0.56097 | 9.39486 | 3405 ft | 253 kts | 39° |
| 2026-05-07 12:59 | 0.57526 | 9.40591 | 3818 ft | 265 kts | 37° |
| 2026-05-07 12:59 | 0.59025 | 9.41696 | 4405 ft | 272 kts | 37° |
| 2026-05-07 12:59 | 0.60535 | 9.42802 | 5345 ft | 266 kts | 36° |
| 2026-05-07 13:00 | 0.62044 | 9.43881 | 5963 ft | 271 kts | 31° |
| 2026-05-07 13:00 | 0.63735 | 9.44668 | 6666 ft | 271 kts | 18° |
| 2026-05-07 13:00 | 0.65564 | 9.45167 | 7413 ft | 271 kts | 16° |
| 2026-05-07 13:00 | 0.67386 | 9.45642 | 8040 ft | 274 kts | 18° |
| 2026-05-07 13:01 | 0.69215 | 9.46144 | 8734 ft | 274 kts | 19° |
| 2026-05-07 13:01 | 0.71053 | 9.46660 | 9440 ft | 274 kts | 19° |
| 2026-05-07 13:01 | 0.72897 | 9.47179 | 10074 ft | 276 kts | 19° |
| 2026-05-07 13:01 | 0.74769 | 9.47706 | 10615 ft | 281 kts | 20° |
| 2026-05-07 13:02 | 0.76642 | 9.48231 | 11273 ft | 283 kts | 20° |
| 2026-05-07 13:02 | 0.78557 | 9.48768 | 11848 ft | 287 kts | 20° |
| 2026-05-07 13:02 | 0.80479 | 9.49307 | 12477 ft | 289 kts | 20° |
| 2026-05-07 13:02 | 0.82479 | 9.49872 | 12736 ft | 304 kts | 20° |
| 2026-05-07 13:03 | 0.84574 | 9.50463 | 13034 ft | 318 kts | 20° |
| 2026-05-07 13:03 | 0.86750 | 9.51073 | 13290 ft | 333 kts | 20° |
| 2026-05-07 13:03 | 0.89041 | 9.51715 | 13476 ft | 349 kts | 20° |
| 2026-05-07 13:03 | 0.91441 | 9.52389 | 13648 ft | 363 kts | 20° |
| 2026-05-07 13:04 | 0.93936 | 9.53089 | 13786 ft | 378 kts | 19° |
| 2026-05-07 13:04 | 0.96493 | 9.53804 | 14180 ft | 385 kts | 19° |
| 2026-05-07 13:04 | 0.99079 | 9.54525 | 14627 ft | 389 kts | 19° |
| 2026-05-07 13:04 | 1.01726 | 9.55265 | 15116 ft | 393 kts | 19° |
| 2026-05-07 13:05 | 1.04364 | 9.56001 | 15586 ft | 397 kts | 19° |
| 2026-05-07 13:05 | 1.07060 | 9.56756 | 16040 ft | 401 kts | 19° |
| 2026-05-07 13:05 | 1.09737 | 9.57507 | 16484 ft | 405 kts | 19° |
| 2026-05-07 13:05 | 1.12467 | 9.58275 | 16918 ft | 409 kts | 19° |
| 2026-05-07 13:06 | 1.15224 | 9.59049 | 17333 ft | 413 kts | 19° |
| 2026-05-07 13:06 | 1.18038 | 9.59840 | 17778 ft | 416 kts | 18° |
| 2026-05-07 13:06 | 1.20835 | 9.60624 | 18235 ft | 418 kts | 18° |
| 2026-05-07 13:06 | 1.23639 | 9.61410 | 18659 ft | 420 kts | 18° |
| 2026-05-07 13:07 | 1.26454 | 9.62199 | 19060 ft | 423 kts | 18° |
| 2026-05-07 13:07 | 1.29334 | 9.63007 | 19474 ft | 425 kts | 18° |
| 2026-05-07 13:07 | 1.32188 | 9.63806 | 19885 ft | 427 kts | 18° |
| 2026-05-07 13:07 | 1.35066 | 9.64613 | 20242 ft | 430 kts | 18° |
| 2026-05-07 13:08 | 1.37945 | 9.65420 | 20633 ft | 432 kts | 18° |
| 2026-05-07 13:08 | 1.40847 | 9.66234 | 21007 ft | 434 kts | 18° |
| 2026-05-07 13:08 | 1.43781 | 9.67058 | 21392 ft | 436 kts | 18° |
| 2026-05-07 13:08 | 1.46693 | 9.67876 | 21744 ft | 438 kts | 18° |
| 2026-05-07 13:09 | 1.49641 | 9.68704 | 22066 ft | 441 kts | 18° |
| 2026-05-07 13:09 | 1.52597 | 9.69534 | 22427 ft | 443 kts | 18° |
| 2026-05-07 13:09 | 1.55580 | 9.70372 | 22791 ft | 444 kts | 18° |
| 2026-05-07 13:09 | 1.58566 | 9.71212 | 23109 ft | 447 kts | 18° |
| 2026-05-07 13:10 | 1.61570 | 9.72092 | 23517 ft | 447 kts | 19° |
| 2026-05-07 13:10 | 1.64566 | 9.73004 | 23807 ft | 450 kts | 19° |
| 2026-05-07 13:10 | 1.67592 | 9.73935 | 24143 ft | 452 kts | 19° |
| 2026-05-07 13:10 | 1.70569 | 9.74849 | 24504 ft | 453 kts | 19° |
| 2026-05-07 13:11 | 1.73606 | 9.75778 | 24835 ft | 454 kts | 19° |
| 2026-05-07 13:11 | 1.76661 | 9.76713 | 25151 ft | 456 kts | 19° |
| 2026-05-07 13:11 | 1.79671 | 9.77635 | 25467 ft | 457 kts | 19° |
| 2026-05-07 13:11 | 1.82724 | 9.78569 | 25708 ft | 461 kts | 19° |
| 2026-05-07 13:12 | 1.85824 | 9.79472 | 26172 ft | 459 kts | 17° |
| 2026-05-07 13:12 | 1.88936 | 9.80227 | 26631 ft | 458 kts | 13° |
| 2026-05-07 13:12 | 1.92078 | 9.80599 | 27081 ft | 458 kts | 6° |
| 2026-05-07 13:12 | 1.95277 | 9.80669 | 27428 ft | 459 kts | 2° |
| 2026-05-07 13:13 | 1.98478 | 9.80613 | 27838 ft | 458 kts | 1° |
| 2026-05-07 13:13 | 2.01689 | 9.80522 | 28299 ft | 455 kts | 1° |
| 2026-05-07 13:13 | 2.04825 | 9.80427 | 28743 ft | 453 kts | 1° |
| 2026-05-07 13:13 | 2.07998 | 9.80330 | 29197 ft | 450 kts | 1° |
| 2026-05-07 13:14 | 2.11110 | 9.80236 | 29471 ft | 452 kts | 1° |
| 2026-05-07 13:14 | 2.14250 | 9.80143 | 29764 ft | 453 kts | 1° |
| 2026-05-07 13:14 | 2.17433 | 9.80044 | 30117 ft | 452 kts | 1° |
| 2026-05-07 13:14 | 2.20591 | 9.79945 | 30442 ft | 452 kts | 1° |
| 2026-05-07 13:15 | 2.23715 | 9.79849 | 30803 ft | 451 kts | 1° |
| 2026-05-07 13:15 | 2.26893 | 9.79750 | 31048 ft | 453 kts | 1° |
| 2026-05-07 13:15 | 2.30062 | 9.79651 | 31245 ft | 456 kts | 1° |
| 2026-05-07 13:15 | 2.33250 | 9.79551 | 31506 ft | 456 kts | 1° |
| 2026-05-07 13:16 | 2.36379 | 9.79453 | 31891 ft | 454 kts | 0° |
| 2026-05-07 13:16 | 2.39558 | 9.79353 | 32274 ft | 452 kts | 1° |
| 2026-05-07 13:16 | 2.42697 | 9.79255 | 32598 ft | 451 kts | 0° |
| 2026-05-07 13:16 | 2.45863 | 9.79155 | 32841 ft | 452 kts | 1° |
| 2026-05-07 13:17 | 2.52165 | 9.78959 | 32865 ft | 454 kts | 1° |
| 2026-05-07 13:17 | 2.58504 | 9.78760 | 32866 ft | 452 kts | 0° |
| 2026-05-07 13:18 | 2.64814 | 9.78562 | 32865 ft | 451 kts | 1° |
| 2026-05-07 13:18 | 2.71059 | 9.78368 | 32865 ft | 450 kts | 0° |
| 2026-05-07 13:19 | 2.77351 | 9.78172 | 32864 ft | 452 kts | 0° |
| 2026-05-07 13:19 | 2.83656 | 9.77974 | 32864 ft | 452 kts | 0° |
| 2026-05-07 13:20 | 2.89976 | 9.77776 | 32863 ft | 452 kts | 0° |
| 2026-05-07 13:20 | 2.96254 | 9.77580 | 32863 ft | 453 kts | 0° |
| 2026-05-07 13:21 | 3.02584 | 9.77382 | 32859 ft | 450 kts | 0° |
| 2026-05-07 13:21 | 3.08826 | 9.77186 | 32858 ft | 451 kts | 0° |
| 2026-05-07 13:22 | 3.15146 | 9.76989 | 32850 ft | 452 kts | 0° |
| 2026-05-07 13:22 | 3.21421 | 9.76793 | 32846 ft | 452 kts | 0° |
| 2026-05-07 13:23 | 3.27712 | 9.76596 | 32845 ft | 452 kts | 0° |
| 2026-05-07 13:23 | 3.34015 | 9.76399 | 32846 ft | 451 kts | 0° |
| 2026-05-07 13:24 | 3.40341 | 9.76200 | 32845 ft | 451 kts | 0° |
| 2026-05-07 13:24 | 3.46594 | 9.76005 | 32849 ft | 452 kts | 0° |
| 2026-05-07 13:25 | 3.52890 | 9.75807 | 32847 ft | 451 kts | 0° |
| 2026-05-07 13:25 | 3.59214 | 9.75608 | 32849 ft | 453 kts | 0° |
| 2026-05-07 13:26 | 3.65504 | 9.75411 | 32849 ft | 452 kts | 0° |
| 2026-05-07 13:26 | 3.71786 | 9.75215 | 32849 ft | 451 kts | 0° |
| 2026-05-07 13:27 | 3.78102 | 9.75017 | 32849 ft | 451 kts | 0° |
| 2026-05-07 13:27 | 3.84380 | 9.74820 | 32851 ft | 452 kts | 0° |
| 2026-05-07 13:28 | 3.90667 | 9.74624 | 32853 ft | 452 kts | 0° |
| 2026-05-07 13:28 | 3.96966 | 9.74287 | 32902 ft | 452 kts | 356° |
| 2026-05-07 13:29 | 4.00108 | 9.73805 | 33005 ft | 458 kts | 349° |
| 2026-05-07 13:29 | 4.03200 | 9.72976 | 33458 ft | 456 kts | 345° |
| 2026-05-07 13:29 | 4.06191 | 9.71989 | 33808 ft | 455 kts | 343° |
| 2026-05-07 13:29 | 4.09217 | 9.70931 | 33843 ft | 458 kts | 343° |
| 2026-05-07 13:30 | 4.15211 | 9.68798 | 33849 ft | 456 kts | 343° |
| 2026-05-07 13:30 | 4.21205 | 9.66669 | 33850 ft | 454 kts | 343° |
| 2026-05-07 13:31 | 4.27218 | 9.64539 | 33851 ft | 455 kts | 343° |
| 2026-05-07 13:31 | 4.33168 | 9.62432 | 33855 ft | 455 kts | 343° |
| 2026-05-07 13:32 | 4.39175 | 9.60304 | 33861 ft | 454 kts | 343° |
| 2026-05-07 13:32 | 4.45153 | 9.58188 | 33867 ft | 456 kts | 343° |
| 2026-05-07 13:33 | 4.51165 | 9.56284 | 33871 ft | 453 kts | 349° |
| 2026-05-07 13:33 | 4.57361 | 9.54910 | 33882 ft | 452 kts | 351° |
| 2026-05-07 13:34 | 4.66585 | 9.52962 | 33902 ft | 451 kts | 350° |
| 2026-05-07 13:35 | 4.72760 | 9.51639 | 33921 ft | 452 kts | 350° |
| 2026-05-07 13:35 | 4.78887 | 9.50319 | 33942 ft | 452 kts | 350° |
| 2026-05-07 13:36 | 4.85049 | 9.48987 | 33971 ft | 453 kts | 350° |
| 2026-05-07 13:36 | 4.91248 | 9.47643 | 33996 ft | 452 kts | 350° |
| 2026-05-07 13:37 | 4.97411 | 9.46307 | 34022 ft | 451 kts | 350° |
| 2026-05-07 13:37 | 5.03547 | 9.44975 | 34049 ft | 452 kts | 350° |
| 2026-05-07 13:38 | 5.09680 | 9.43644 | 34057 ft | 451 kts | 350° |
| 2026-05-07 13:38 | 5.15854 | 9.42305 | 34068 ft | 451 kts | 350° |
| 2026-05-07 13:39 | 5.21993 | 9.40972 | 34076 ft | 451 kts | 350° |
| 2026-05-07 13:39 | 5.28161 | 9.39632 | 34075 ft | 451 kts | 350° |
| 2026-05-07 13:40 | 5.34264 | 9.38305 | 34071 ft | 450 kts | 350° |
| 2026-05-07 13:40 | 5.40400 | 9.36972 | 34065 ft | 450 kts | 350° |
| 2026-05-07 13:41 | 5.46576 | 9.35631 | 34053 ft | 450 kts | 350° |
| 2026-05-07 13:41 | 5.52681 | 9.34304 | 34036 ft | 450 kts | 350° |
| 2026-05-07 13:42 | 5.58823 | 9.32968 | 34017 ft | 450 kts | 350° |
| 2026-05-07 13:42 | 5.64961 | 9.31633 | 33998 ft | 450 kts | 349° |
| 2026-05-07 13:43 | 5.71092 | 9.30337 | 33962 ft | 449 kts | 352° |
| 2026-05-07 13:43 | 5.77269 | 9.29527 | 33941 ft | 448 kts | 355° |
| 2026-05-07 13:44 | 5.83493 | 9.28848 | 33924 ft | 447 kts | 355° |
| 2026-05-07 13:44 | 5.89664 | 9.28158 | 33914 ft | 448 kts | 355° |
| 2026-05-07 13:45 | 5.95875 | 9.27451 | 33889 ft | 448 kts | 355° |
| 2026-05-07 13:45 | 6.02091 | 9.26735 | 33877 ft | 448 kts | 355° |
| 2026-05-07 13:46 | 6.08298 | 9.26018 | 33876 ft | 447 kts | 355° |
| 2026-05-07 13:46 | 6.14501 | 9.25298 | 33879 ft | 447 kts | 355° |
| 2026-05-07 13:47 | 6.20710 | 9.24576 | 33882 ft | 447 kts | 355° |
| 2026-05-07 13:47 | 6.26863 | 9.23861 | 33880 ft | 447 kts | 355° |
| 2026-05-07 13:48 | 6.33057 | 9.23141 | 33899 ft | 447 kts | 354° |
| 2026-05-07 13:48 | 6.39260 | 9.22418 | 33916 ft | 447 kts | 354° |
| 2026-05-07 13:49 | 6.45430 | 9.21698 | 33935 ft | 446 kts | 355° |
| 2026-05-07 13:49 | 6.51617 | 9.20978 | 33944 ft | 447 kts | 354° |
| 2026-05-07 13:50 | 6.57797 | 9.20258 | 33922 ft | 446 kts | 354° |
| 2026-05-07 13:50 | 6.63980 | 9.19538 | 33911 ft | 446 kts | 354° |
| 2026-05-07 13:51 | 6.70179 | 9.18817 | 33894 ft | 447 kts | 354° |
| 2026-05-07 13:51 | 6.76358 | 9.18094 | 33890 ft | 445 kts | 354° |
| 2026-05-07 13:52 | 6.82526 | 9.17372 | 33878 ft | 445 kts | 354° |
| 2026-05-07 13:52 | 6.88712 | 9.16653 | 33873 ft | 446 kts | 354° |
| 2026-05-07 13:53 | 6.94843 | 9.15937 | 33866 ft | 446 kts | 354° |
| 2026-05-07 13:53 | 7.01023 | 9.15216 | 33863 ft | 446 kts | 354° |
| 2026-05-07 13:54 | 7.07247 | 9.14491 | 33855 ft | 446 kts | 354° |
| 2026-05-07 13:54 | 7.13379 | 9.13773 | 33858 ft | 445 kts | 354° |
| 2026-05-07 13:55 | 7.19570 | 9.13049 | 33851 ft | 445 kts | 354° |
| 2026-05-07 13:55 | 7.25761 | 9.12322 | 33850 ft | 446 kts | 354° |
| 2026-05-07 13:56 | 7.31930 | 9.11602 | 33844 ft | 445 kts | 354° |
| 2026-05-07 13:56 | 7.38087 | 9.10884 | 33840 ft | 446 kts | 354° |
| 2026-05-07 13:57 | 7.44239 | 9.10165 | 33828 ft | 444 kts | 354° |
| 2026-05-07 13:57 | 7.50396 | 9.09443 | 33827 ft | 445 kts | 354° |
| 2026-05-07 13:58 | 7.56574 | 9.08719 | 33823 ft | 445 kts | 354° |
| 2026-05-07 13:58 | 7.62746 | 9.07997 | 33820 ft | 446 kts | 354° |
| 2026-05-07 13:59 | 7.68887 | 9.07278 | 33817 ft | 445 kts | 354° |
| 2026-05-07 13:59 | 7.75074 | 9.06553 | 33829 ft | 444 kts | 354° |
| 2026-05-07 14:00 | 7.81239 | 9.05831 | 33831 ft | 445 kts | 354° |
| 2026-05-07 14:00 | 7.87380 | 9.05112 | 33824 ft | 446 kts | 354° |
| 2026-05-07 14:01 | 7.93555 | 9.04388 | 33818 ft | 445 kts | 354° |
| 2026-05-07 14:01 | 7.99720 | 9.03665 | 33819 ft | 446 kts | 354° |
| 2026-05-07 14:02 | 8.05932 | 9.02935 | 33818 ft | 445 kts | 354° |
| 2026-05-07 14:02 | 8.12072 | 9.02215 | 33825 ft | 446 kts | 354° |
| 2026-05-07 14:03 | 8.18226 | 9.01492 | 33828 ft | 446 kts | 354° |
| 2026-05-07 14:03 | 8.24443 | 9.00761 | 33832 ft | 446 kts | 354° |
| 2026-05-07 14:04 | 8.30613 | 9.00037 | 33834 ft | 446 kts | 354° |
| 2026-05-07 14:04 | 8.36801 | 8.99310 | 33837 ft | 446 kts | 354° |
| 2026-05-07 14:05 | 8.42946 | 8.98588 | 33836 ft | 446 kts | 354° |
| 2026-05-07 14:05 | 8.49151 | 8.97859 | 33837 ft | 447 kts | 354° |
| 2026-05-07 14:06 | 8.55345 | 8.97130 | 33834 ft | 446 kts | 354° |
| 2026-05-07 14:06 | 8.61515 | 8.96404 | 33831 ft | 445 kts | 354° |
| 2026-05-07 14:07 | 8.67682 | 8.95679 | 33831 ft | 446 kts | 354° |
| 2026-05-07 14:07 | 8.73851 | 8.94952 | 33830 ft | 447 kts | 354° |
| 2026-05-07 14:08 | 8.80063 | 8.94220 | 33844 ft | 447 kts | 354° |
| 2026-05-07 14:08 | 8.86264 | 8.93489 | 33856 ft | 447 kts | 354° |
| 2026-05-07 14:09 | 8.92427 | 8.92765 | 33869 ft | 448 kts | 354° |
| 2026-05-07 14:09 | 8.98638 | 8.92033 | 33879 ft | 446 kts | 354° |
| 2026-05-07 14:10 | 9.04842 | 8.91301 | 33903 ft | 446 kts | 354° |
| 2026-05-07 14:10 | 9.11025 | 8.90571 | 33952 ft | 447 kts | 354° |
| 2026-05-07 14:11 | 9.17182 | 8.89844 | 33995 ft | 447 kts | 354° |
| 2026-05-07 14:11 | 9.23376 | 8.89112 | 34042 ft | 446 kts | 354° |
| 2026-05-07 14:12 | 9.29580 | 8.88379 | 34061 ft | 447 kts | 354° |
| 2026-05-07 14:12 | 9.35755 | 8.87650 | 34069 ft | 444 kts | 354° |
| 2026-05-07 14:13 | 9.41889 | 8.86925 | 34061 ft | 445 kts | 354° |
| 2026-05-07 14:13 | 9.48060 | 8.86196 | 34051 ft | 446 kts | 354° |
| 2026-05-07 14:14 | 9.54246 | 8.85464 | 34062 ft | 445 kts | 354° |
| 2026-05-07 14:14 | 9.60427 | 8.84732 | 34068 ft | 444 kts | 354° |
| 2026-05-07 14:15 | 9.66582 | 8.84009 | 34073 ft | 444 kts | 354° |
| 2026-05-07 14:15 | 9.72728 | 8.83311 | 34076 ft | 443 kts | 354° |
| 2026-05-07 14:16 | 9.78839 | 8.82621 | 34082 ft | 444 kts | 354° |
| 2026-05-07 14:16 | 9.84983 | 8.81925 | 34077 ft | 443 kts | 354° |
| 2026-05-07 14:17 | 9.91143 | 8.81226 | 34082 ft | 443 kts | 354° |
| 2026-05-07 14:17 | 9.97305 | 8.80526 | 34068 ft | 442 kts | 354° |
| 2026-05-07 14:18 | 10.03422 | 8.79831 | 34060 ft | 443 kts | 354° |
| 2026-05-07 14:18 | 10.09540 | 8.79135 | 34052 ft | 443 kts | 354° |
| 2026-05-07 14:19 | 10.15674 | 8.78438 | 34038 ft | 443 kts | 354° |
| 2026-05-07 14:19 | 10.21834 | 8.77736 | 34024 ft | 443 kts | 354° |
| 2026-05-07 14:20 | 10.27966 | 8.77038 | 34004 ft | 443 kts | 354° |
| 2026-05-07 14:20 | 10.34093 | 8.76341 | 34007 ft | 443 kts | 354° |
| 2026-05-07 14:21 | 10.40239 | 8.75640 | 34005 ft | 443 kts | 354° |
| 2026-05-07 14:21 | 10.46392 | 8.74939 | 34003 ft | 443 kts | 354° |
| 2026-05-07 14:22 | 10.52519 | 8.74240 | 33998 ft | 444 kts | 354° |
| 2026-05-07 14:22 | 10.58712 | 8.73533 | 33996 ft | 444 kts | 354° |
| 2026-05-07 14:23 | 10.64868 | 8.72831 | 33990 ft | 445 kts | 354° |
| 2026-05-07 14:23 | 10.71004 | 8.72130 | 33988 ft | 443 kts | 354° |
| 2026-05-07 14:24 | 10.77140 | 8.71429 | 33984 ft | 444 kts | 354° |
| 2026-05-07 14:24 | 10.83318 | 8.70723 | 33969 ft | 445 kts | 354° |
| 2026-05-07 14:25 | 10.89441 | 8.70016 | 33946 ft | 445 kts | 353° |
| 2026-05-07 14:25 | 10.95579 | 8.69004 | 33927 ft | 445 kts | 350° |
| 2026-05-07 14:26 | 11.01702 | 8.67868 | 33911 ft | 446 kts | 350° |
| 2026-05-07 14:26 | 11.07781 | 8.66756 | 33908 ft | 443 kts | 350° |
| 2026-05-07 14:27 | 11.13903 | 8.65652 | 33907 ft | 444 kts | 350° |
| 2026-05-07 14:27 | 11.19999 | 8.64560 | 33906 ft | 444 kts | 350° |
| 2026-05-07 14:28 | 11.26063 | 8.63476 | 33901 ft | 445 kts | 350° |
| 2026-05-07 14:28 | 11.32203 | 8.62380 | 33891 ft | 444 kts | 350° |
| 2026-05-07 14:29 | 11.38303 | 8.61291 | 33883 ft | 444 kts | 350° |
| 2026-05-07 14:29 | 11.44390 | 8.60205 | 33878 ft | 444 kts | 350° |
| 2026-05-07 14:30 | 11.50477 | 8.59118 | 33868 ft | 444 kts | 350° |
| 2026-05-07 14:30 | 11.56601 | 8.58024 | 33861 ft | 443 kts | 350° |
| 2026-05-07 14:31 | 11.62682 | 8.56938 | 33852 ft | 443 kts | 350° |
| 2026-05-07 14:31 | 11.68764 | 8.55851 | 33845 ft | 443 kts | 350° |
| 2026-05-07 14:32 | 11.74841 | 8.54765 | 33835 ft | 443 kts | 350° |
| 2026-05-07 14:32 | 11.80934 | 8.53675 | 33837 ft | 444 kts | 350° |
| 2026-05-07 14:33 | 11.87064 | 8.52578 | 33838 ft | 443 kts | 350° |
| 2026-05-07 14:33 | 11.93126 | 8.51493 | 33841 ft | 442 kts | 350° |
| 2026-05-07 14:34 | 11.99182 | 8.50409 | 33848 ft | 443 kts | 350° |
| 2026-05-07 14:34 | 12.05295 | 8.49353 | 33852 ft | 443 kts | 352° |
| 2026-05-07 14:35 | 12.11410 | 8.48719 | 33852 ft | 443 kts | 354° |
| 2026-05-07 14:35 | 12.17600 | 8.48167 | 33848 ft | 443 kts | 354° |
| 2026-05-07 14:36 | 12.23734 | 8.47595 | 33855 ft | 444 kts | 354° |
| 2026-05-07 14:36 | 12.29884 | 8.47005 | 33857 ft | 444 kts | 354° |
| 2026-05-07 14:37 | 12.36045 | 8.46406 | 33857 ft | 443 kts | 354° |
| 2026-05-07 14:37 | 12.45276 | 8.45500 | 33850 ft | 443 kts | 354° |
| 2026-05-07 14:38 | 12.51443 | 8.44893 | 33853 ft | 443 kts | 354° |
| 2026-05-07 14:38 | 12.57583 | 8.44287 | 33848 ft | 444 kts | 354° |
| 2026-05-07 14:39 | 12.63751 | 8.43678 | 33850 ft | 444 kts | 354° |
| 2026-05-07 14:39 | 12.69913 | 8.43069 | 34184 ft | 446 kts | 354° |
| 2026-05-07 14:40 | 12.73014 | 8.42762 | 34839 ft | 441 kts | 354° |
| 2026-05-07 14:40 | 12.76047 | 8.42463 | 35377 ft | 437 kts | 353° |
| 2026-05-07 14:40 | 12.79102 | 8.42160 | 35629 ft | 440 kts | 353° |
| 2026-05-07 14:40 | 12.82148 | 8.41858 | 35838 ft | 442 kts | 353° |
| 2026-05-07 14:41 | 12.88284 | 8.41248 | 35852 ft | 441 kts | 353° |
| 2026-05-07 14:41 | 12.94417 | 8.40640 | 35856 ft | 437 kts | 353° |
| 2026-05-07 14:42 | 13.00478 | 8.40038 | 35854 ft | 439 kts | 353° |
| 2026-05-07 14:42 | 13.06572 | 8.39432 | 35853 ft | 439 kts | 353° |
| 2026-05-07 14:43 | 13.12686 | 8.38839 | 35852 ft | 438 kts | 354° |
| 2026-05-07 14:43 | 13.18760 | 8.38277 | 35852 ft | 438 kts | 354° |
| 2026-05-07 14:44 | 13.24853 | 8.37711 | 35852 ft | 438 kts | 353° |
| 2026-05-07 14:44 | 13.30955 | 8.37143 | 35851 ft | 439 kts | 353° |
| 2026-05-07 14:45 | 13.37054 | 8.36573 | 35848 ft | 438 kts | 353° |
| 2026-05-07 14:45 | 13.43097 | 8.36009 | 35847 ft | 438 kts | 353° |
| 2026-05-07 14:46 | 13.49183 | 8.35440 | 35848 ft | 438 kts | 353° |
| 2026-05-07 14:46 | 13.55299 | 8.34868 | 35849 ft | 439 kts | 353° |
| 2026-05-07 14:47 | 13.61369 | 8.34300 | 35857 ft | 438 kts | 353° |
| 2026-05-07 14:47 | 13.67458 | 8.33730 | 35861 ft | 439 kts | 353° |
| 2026-05-07 14:48 | 13.73581 | 8.33155 | 35859 ft | 439 kts | 353° |
| 2026-05-07 14:48 | 13.79691 | 8.32582 | 35855 ft | 439 kts | 353° |
| 2026-05-07 14:49 | 13.85775 | 8.32009 | 35855 ft | 439 kts | 353° |
| 2026-05-07 14:49 | 13.91841 | 8.31439 | 35852 ft | 440 kts | 353° |
| 2026-05-07 14:50 | 13.97962 | 8.30862 | 35845 ft | 439 kts | 353° |
| 2026-05-07 14:50 | 14.04061 | 8.30288 | 35844 ft | 438 kts | 353° |
| 2026-05-07 14:51 | 14.10106 | 8.29718 | 35847 ft | 439 kts | 353° |
| 2026-05-07 14:51 | 14.16199 | 8.29144 | 35847 ft | 438 kts | 353° |
| 2026-05-07 14:52 | 14.22322 | 8.28566 | 35851 ft | 438 kts | 353° |
| 2026-05-07 14:52 | 14.28410 | 8.27990 | 35852 ft | 438 kts | 352° |
| 2026-05-07 14:53 | 14.34474 | 8.27418 | 35857 ft | 438 kts | 352° |
| 2026-05-07 14:53 | 14.40547 | 8.26843 | 35856 ft | 440 kts | 352° |
| 2026-05-07 14:54 | 14.46681 | 8.26265 | 35858 ft | 438 kts | 352° |
| 2026-05-07 14:54 | 14.52766 | 8.25688 | 35860 ft | 440 kts | 352° |
| 2026-05-07 14:55 | 14.58876 | 8.25109 | 35860 ft | 438 kts | 352° |
| 2026-05-07 14:55 | 14.64939 | 8.24531 | 35859 ft | 438 kts | 352° |
| 2026-05-07 14:56 | 14.71028 | 8.23955 | 35854 ft | 439 kts | 352° |
| 2026-05-07 14:56 | 14.77112 | 8.23381 | 35852 ft | 439 kts | 352° |
| 2026-05-07 14:57 | 14.83199 | 8.22805 | 35850 ft | 438 kts | 352° |
| 2026-05-07 14:57 | 14.89296 | 8.22225 | 35850 ft | 440 kts | 352° |
| 2026-05-07 14:58 | 14.95380 | 8.21647 | 35852 ft | 439 kts | 352° |
| 2026-05-07 14:58 | 15.01470 | 8.21068 | 35855 ft | 439 kts | 352° |
| 2026-05-07 14:59 | 15.07578 | 8.20487 | 35867 ft | 439 kts | 352° |
| 2026-05-07 14:59 | 15.13650 | 8.19912 | 35877 ft | 439 kts | 352° |
| 2026-05-07 15:00 | 15.19783 | 8.19331 | 35874 ft | 440 kts | 352° |
| 2026-05-07 15:00 | 15.25864 | 8.18753 | 35884 ft | 439 kts | 352° |
| 2026-05-07 15:01 | 15.31969 | 8.18175 | 35883 ft | 438 kts | 352° |
| 2026-05-07 15:01 | 15.38024 | 8.17600 | 35883 ft | 437 kts | 351° |
| 2026-05-07 15:02 | 15.44101 | 8.17022 | 35883 ft | 439 kts | 351° |
| 2026-05-07 15:02 | 15.50169 | 8.16446 | 35883 ft | 439 kts | 351° |
| 2026-05-07 15:03 | 15.56281 | 8.15865 | 35891 ft | 437 kts | 351° |
| 2026-05-07 15:03 | 15.62352 | 8.15285 | 35892 ft | 439 kts | 351° |
| 2026-05-07 15:04 | 15.68452 | 8.14704 | 35891 ft | 439 kts | 351° |
| 2026-05-07 15:04 | 15.74556 | 8.14122 | 35893 ft | 439 kts | 351° |
| 2026-05-07 15:05 | 15.80622 | 8.13544 | 35894 ft | 439 kts | 351° |
| 2026-05-07 15:05 | 15.86718 | 8.12964 | 35891 ft | 439 kts | 351° |
| 2026-05-07 15:06 | 15.92812 | 8.12382 | 35894 ft | 439 kts | 351° |
| 2026-05-07 15:06 | 15.98875 | 8.11803 | 35899 ft | 438 kts | 351° |
| 2026-05-07 15:07 | 16.04957 | 8.11221 | 35896 ft | 439 kts | 351° |
| 2026-05-07 15:07 | 16.11075 | 8.10636 | 35899 ft | 438 kts | 351° |
| 2026-05-07 15:08 | 16.17151 | 8.10054 | 35900 ft | 437 kts | 351° |
| 2026-05-07 15:08 | 16.23188 | 8.09478 | 35897 ft | 436 kts | 351° |
| 2026-05-07 15:09 | 16.29252 | 8.08896 | 35899 ft | 437 kts | 351° |
| 2026-05-07 15:09 | 16.35354 | 8.08309 | 35900 ft | 438 kts | 351° |
| 2026-05-07 15:10 | 16.41437 | 8.07726 | 35899 ft | 437 kts | 351° |
| 2026-05-07 15:10 | 16.47487 | 8.07143 | 35898 ft | 439 kts | 350° |
| 2026-05-07 15:11 | 16.53616 | 8.06555 | 35888 ft | 438 kts | 350° |
| 2026-05-07 15:11 | 16.59651 | 8.05977 | 35884 ft | 435 kts | 351° |
| 2026-05-07 15:12 | 16.65732 | 8.05391 | 35880 ft | 438 kts | 350° |
| 2026-05-07 15:12 | 16.71839 | 8.04802 | 35878 ft | 440 kts | 350° |
| 2026-05-07 15:13 | 16.77915 | 8.04218 | 35875 ft | 439 kts | 350° |
| 2026-05-07 15:13 | 16.84035 | 8.03630 | 35873 ft | 439 kts | 350° |
| 2026-05-07 15:14 | 16.90132 | 8.03041 | 35874 ft | 438 kts | 350° |
| 2026-05-07 15:14 | 16.96178 | 8.02457 | 35873 ft | 437 kts | 350° |
| 2026-05-07 15:15 | 17.02267 | 8.01918 | 35879 ft | 438 kts | 351° |
| 2026-05-07 15:15 | 17.08385 | 8.01437 | 35885 ft | 440 kts | 351° |
| 2026-05-07 15:16 | 17.14509 | 8.00952 | 35890 ft | 440 kts | 351° |
| 2026-05-07 15:16 | 17.20622 | 8.00465 | 35903 ft | 441 kts | 351° |
| 2026-05-07 15:17 | 17.26750 | 7.99974 | 35905 ft | 440 kts | 350° |
| 2026-05-07 15:17 | 17.32855 | 7.99483 | 35914 ft | 438 kts | 351° |
| 2026-05-07 15:18 | 17.38983 | 7.98988 | 35913 ft | 441 kts | 351° |
| 2026-05-07 15:18 | 17.45102 | 7.98494 | 35910 ft | 441 kts | 350° |
| 2026-05-07 15:19 | 17.51247 | 7.97998 | 35909 ft | 442 kts | 351° |
| 2026-05-07 15:19 | 17.57369 | 7.97503 | 35911 ft | 441 kts | 351° |
| 2026-05-07 15:20 | 17.63463 | 7.97012 | 35914 ft | 441 kts | 350° |
| 2026-05-07 15:20 | 17.69594 | 7.96515 | 35917 ft | 442 kts | 350° |
| 2026-05-07 15:21 | 17.75780 | 7.96013 | 35914 ft | 442 kts | 350° |
| 2026-05-07 15:21 | 17.81897 | 7.95517 | 35915 ft | 442 kts | 350° |
| 2026-05-07 15:22 | 17.88066 | 7.95017 | 35923 ft | 442 kts | 350° |
| 2026-05-07 15:22 | 17.94182 | 7.94521 | 35935 ft | 442 kts | 350° |
| 2026-05-07 15:23 | 18.00331 | 7.94021 | 35925 ft | 443 kts | 350° |
| 2026-05-07 15:23 | 18.06478 | 7.93522 | 35916 ft | 442 kts | 350° |
| 2026-05-07 15:24 | 18.12635 | 7.93021 | 35912 ft | 444 kts | 350° |
| 2026-05-07 15:24 | 18.18790 | 7.92521 | 35909 ft | 442 kts | 350° |
| 2026-05-07 15:25 | 18.24928 | 7.92021 | 35908 ft | 442 kts | 350° |
| 2026-05-07 15:25 | 18.31100 | 7.91518 | 35907 ft | 442 kts | 350° |
| 2026-05-07 15:26 | 18.37237 | 7.91018 | 35905 ft | 441 kts | 350° |
| 2026-05-07 15:26 | 18.43350 | 7.90519 | 35905 ft | 442 kts | 350° |
| 2026-05-07 15:27 | 18.49508 | 7.90015 | 35905 ft | 442 kts | 350° |
| 2026-05-07 15:27 | 18.55608 | 7.89516 | 35901 ft | 442 kts | 350° |
| 2026-05-07 15:28 | 18.61787 | 7.89011 | 35897 ft | 442 kts | 350° |
| 2026-05-07 15:28 | 18.67908 | 7.88511 | 35892 ft | 442 kts | 350° |
| 2026-05-07 15:29 | 18.74053 | 7.88008 | 35894 ft | 441 kts | 350° |
| 2026-05-07 15:29 | 18.80158 | 7.87507 | 35897 ft | 441 kts | 349° |
| 2026-05-07 15:30 | 18.86326 | 7.86999 | 35903 ft | 442 kts | 349° |
| 2026-05-07 15:30 | 18.92459 | 7.86496 | 35911 ft | 442 kts | 349° |
| 2026-05-07 15:31 | 18.98586 | 7.85993 | 35913 ft | 441 kts | 349° |
| 2026-05-07 15:31 | 19.04719 | 7.85489 | 35919 ft | 443 kts | 349° |
| 2026-05-07 15:32 | 19.10893 | 7.84979 | 35913 ft | 443 kts | 350° |
| 2026-05-07 15:32 | 19.17012 | 7.84479 | 35916 ft | 441 kts | 349° |
| 2026-05-07 15:33 | 19.23137 | 7.83973 | 35913 ft | 441 kts | 349° |
| 2026-05-07 15:33 | 19.29260 | 7.83468 | 35909 ft | 441 kts | 349° |
| 2026-05-07 15:34 | 19.35438 | 7.82958 | 35906 ft | 443 kts | 349° |
| 2026-05-07 15:34 | 19.41563 | 7.82454 | 35906 ft | 443 kts | 349° |
| 2026-05-07 15:35 | 19.47725 | 7.81944 | 35907 ft | 442 kts | 349° |
| 2026-05-07 15:35 | 19.53874 | 7.81440 | 35911 ft | 444 kts | 349° |
| 2026-05-07 15:36 | 19.60011 | 7.80956 | 35913 ft | 442 kts | 349° |
| 2026-05-07 15:36 | 19.66181 | 7.80469 | 35917 ft | 442 kts | 349° |
| 2026-05-07 15:37 | 19.72308 | 7.79982 | 35921 ft | 443 kts | 349° |
| 2026-05-07 15:37 | 19.78465 | 7.79491 | 35922 ft | 441 kts | 349° |
| 2026-05-07 15:38 | 19.84613 | 7.79001 | 35924 ft | 444 kts | 349° |
| 2026-05-07 15:38 | 19.90798 | 7.78508 | 35929 ft | 444 kts | 349° |
| 2026-05-07 15:39 | 19.96975 | 7.78015 | 35933 ft | 443 kts | 349° |
| 2026-05-07 15:39 | 20.03128 | 7.77525 | 35938 ft | 442 kts | 349° |
| 2026-05-07 15:40 | 20.09258 | 7.77034 | 35937 ft | 443 kts | 349° |
| 2026-05-07 15:40 | 20.15434 | 7.76542 | 35932 ft | 441 kts | 349° |
| 2026-05-07 15:41 | 20.21570 | 7.76050 | 35937 ft | 444 kts | 349° |
| 2026-05-07 15:41 | 20.27745 | 7.75555 | 35937 ft | 443 kts | 349° |
| 2026-05-07 15:42 | 20.33907 | 7.75060 | 35939 ft | 444 kts | 349° |
| 2026-05-07 15:42 | 20.40115 | 7.74562 | 35937 ft | 444 kts | 349° |
| 2026-05-07 15:43 | 20.46258 | 7.74070 | 35939 ft | 443 kts | 349° |
| 2026-05-07 15:43 | 20.52438 | 7.73574 | 35927 ft | 442 kts | 349° |
| 2026-05-07 15:44 | 20.58554 | 7.73081 | 35922 ft | 443 kts | 349° |
| 2026-05-07 15:44 | 20.64735 | 7.72582 | 35927 ft | 443 kts | 349° |
| 2026-05-07 15:45 | 20.70915 | 7.72084 | 35919 ft | 442 kts | 349° |
| 2026-05-07 15:45 | 20.77035 | 7.71591 | 35906 ft | 443 kts | 349° |
| 2026-05-07 15:46 | 20.86326 | 7.70841 | 35904 ft | 444 kts | 349° |
| 2026-05-07 15:47 | 20.92469 | 7.70345 | 35907 ft | 443 kts | 349° |
| 2026-05-07 15:47 | 20.98620 | 7.69811 | 35908 ft | 443 kts | 347° |
| 2026-05-07 15:48 | 21.04759 | 7.68963 | 35908 ft | 440 kts | 345° |
| 2026-05-07 15:48 | 21.10838 | 7.68069 | 35915 ft | 442 kts | 345° |
| 2026-05-07 15:49 | 21.16913 | 7.67200 | 35916 ft | 439 kts | 345° |
| 2026-05-07 15:49 | 21.23025 | 7.66336 | 35918 ft | 442 kts | 345° |
| 2026-05-07 15:50 | 21.29133 | 7.65474 | 35918 ft | 441 kts | 345° |
| 2026-05-07 15:50 | 21.35233 | 7.64619 | 35919 ft | 440 kts | 345° |
| 2026-05-07 15:51 | 21.41296 | 7.63764 | 35919 ft | 443 kts | 345° |
| 2026-05-07 15:51 | 21.47431 | 7.62903 | 35918 ft | 441 kts | 345° |
| 2026-05-07 15:52 | 21.53517 | 7.62048 | 35922 ft | 441 kts | 345° |
| 2026-05-07 15:52 | 21.59620 | 7.61186 | 35929 ft | 442 kts | 345° |
| 2026-05-07 15:53 | 21.65755 | 7.60324 | 35933 ft | 442 kts | 345° |
| 2026-05-07 15:53 | 21.71845 | 7.59467 | 35937 ft | 441 kts | 345° |
| 2026-05-07 15:54 | 21.77971 | 7.58601 | 35939 ft | 444 kts | 345° |
| 2026-05-07 15:54 | 21.84078 | 7.57740 | 35945 ft | 442 kts | 345° |
| 2026-05-07 15:55 | 21.90205 | 7.56877 | 35950 ft | 442 kts | 345° |
| 2026-05-07 15:55 | 21.96308 | 7.56012 | 35959 ft | 442 kts | 345° |
| 2026-05-07 15:56 | 22.02427 | 7.55147 | 35965 ft | 443 kts | 345° |
| 2026-05-07 15:56 | 22.08550 | 7.54280 | 35969 ft | 443 kts | 345° |
| 2026-05-07 15:57 | 22.14716 | 7.53405 | 35983 ft | 444 kts | 345° |
| 2026-05-07 15:57 | 22.20829 | 7.52538 | 35987 ft | 443 kts | 345° |
| 2026-05-07 15:58 | 22.26968 | 7.51666 | 35993 ft | 443 kts | 345° |
| 2026-05-07 15:58 | 22.33075 | 7.50797 | 35997 ft | 444 kts | 345° |
| 2026-05-07 15:59 | 22.39229 | 7.49922 | 35998 ft | 443 kts | 345° |
| 2026-05-07 15:59 | 22.45325 | 7.49053 | 36016 ft | 444 kts | 345° |
| 2026-05-07 16:00 | 22.51458 | 7.48179 | 36026 ft | 442 kts | 345° |
| 2026-05-07 16:00 | 22.57584 | 7.47305 | 36029 ft | 445 kts | 345° |
| 2026-05-07 16:01 | 22.63737 | 7.46427 | 36034 ft | 444 kts | 345° |
| 2026-05-07 16:01 | 22.69862 | 7.45552 | 36032 ft | 445 kts | 344° |
| 2026-05-07 16:02 | 22.76010 | 7.44673 | 36043 ft | 443 kts | 344° |
| 2026-05-07 16:02 | 22.82168 | 7.43791 | 36055 ft | 445 kts | 344° |
| 2026-05-07 16:03 | 22.88308 | 7.42912 | 36060 ft | 445 kts | 344° |
| 2026-05-07 16:03 | 22.94445 | 7.42032 | 36067 ft | 445 kts | 344° |
| 2026-05-07 16:04 | 23.00629 | 7.41143 | 36074 ft | 447 kts | 344° |
| 2026-05-07 16:04 | 23.06783 | 7.40261 | 36087 ft | 442 kts | 344° |
| 2026-05-07 16:05 | 23.12871 | 7.39386 | 36108 ft | 443 kts | 344° |
| 2026-05-07 16:05 | 23.19052 | 7.38491 | 36117 ft | 447 kts | 344° |
| 2026-05-07 16:06 | 23.25209 | 7.37607 | 36118 ft | 445 kts | 344° |
| 2026-05-07 16:06 | 23.31352 | 7.36720 | 36128 ft | 446 kts | 344° |
| 2026-05-07 16:07 | 23.37551 | 7.35827 | 36132 ft | 446 kts | 344° |
| 2026-05-07 16:07 | 23.43696 | 7.34937 | 36145 ft | 448 kts | 343° |
| 2026-05-07 16:08 | 23.49862 | 7.34046 | 36147 ft | 446 kts | 343° |
| 2026-05-07 16:08 | 23.56069 | 7.33279 | 36152 ft | 450 kts | 346° |
| 2026-05-07 16:09 | 23.62324 | 7.32648 | 36159 ft | 448 kts | 346° |
| 2026-05-07 16:09 | 23.68534 | 7.32015 | 36168 ft | 450 kts | 346° |
| 2026-05-07 16:10 | 23.74776 | 7.31363 | 36173 ft | 450 kts | 345° |
| 2026-05-07 16:10 | 23.80985 | 7.30715 | 36174 ft | 448 kts | 345° |
| 2026-05-07 16:11 | 23.87229 | 7.30054 | 36189 ft | 450 kts | 345° |
| 2026-05-07 16:11 | 23.93477 | 7.29394 | 36198 ft | 450 kts | 345° |
| 2026-05-07 16:12 | 23.99723 | 7.28731 | 36204 ft | 451 kts | 345° |
| 2026-05-07 16:12 | 24.05978 | 7.28069 | 36198 ft | 450 kts | 345° |
| 2026-05-07 16:13 | 24.12201 | 7.27408 | 36197 ft | 451 kts | 345° |
| 2026-05-07 16:13 | 24.18452 | 7.26740 | 36195 ft | 452 kts | 345° |
| 2026-05-07 16:14 | 24.24742 | 7.26070 | 36184 ft | 451 kts | 345° |
| 2026-05-07 16:14 | 24.30976 | 7.25408 | 36169 ft | 452 kts | 345° |
| 2026-05-07 16:15 | 24.37211 | 7.24743 | 36172 ft | 449 kts | 345° |
| 2026-05-07 16:15 | 24.43462 | 7.24071 | 36156 ft | 453 kts | 345° |
| 2026-05-07 16:16 | 24.49736 | 7.23404 | 36151 ft | 449 kts | 345° |
| 2026-05-07 16:16 | 24.56001 | 7.22731 | 36147 ft | 452 kts | 345° |
| 2026-05-07 16:17 | 24.62249 | 7.22060 | 36140 ft | 453 kts | 345° |
| 2026-05-07 16:17 | 24.68557 | 7.21383 | 36136 ft | 454 kts | 345° |
| 2026-05-07 16:18 | 24.74801 | 7.20716 | 36130 ft | 452 kts | 345° |
| 2026-05-07 16:18 | 24.81096 | 7.20040 | 36131 ft | 451 kts | 345° |
| 2026-05-07 16:19 | 24.87352 | 7.19367 | 36133 ft | 455 kts | 345° |
| 2026-05-07 16:19 | 24.90535 | 7.19211 | 36162 ft | 467 kts | 351° |
| 2026-05-07 16:19 | 24.93850 | 7.19544 | 36512 ft | 481 kts | 2° |
| 2026-05-07 16:19 | 24.97117 | 7.20652 | 36992 ft | 496 kts | 15° |
| 2026-05-07 16:20 | 25.00198 | 7.22333 | 37122 ft | 508 kts | 22° |
| 2026-05-07 16:20 | 25.06102 | 7.26738 | 37138 ft | 510 kts | 29° |
| 2026-05-07 16:21 | 25.11738 | 7.31413 | 37130 ft | 507 kts | 30° |
| 2026-05-07 16:21 | 25.17424 | 7.36098 | 37128 ft | 510 kts | 29° |
| 2026-05-07 16:22 | 25.23103 | 7.40755 | 37144 ft | 507 kts | 29° |
| 2026-05-07 16:22 | 25.28790 | 7.45410 | 37169 ft | 508 kts | 29° |
| 2026-05-07 16:23 | 25.34460 | 7.50041 | 37185 ft | 508 kts | 28° |
| 2026-05-07 16:23 | 25.40124 | 7.54676 | 37203 ft | 504 kts | 28° |
| 2026-05-07 16:24 | 25.45789 | 7.59307 | 37203 ft | 508 kts | 28° |
| 2026-05-07 16:24 | 25.51458 | 7.63951 | 37212 ft | 505 kts | 28° |
| 2026-05-07 16:25 | 25.57098 | 7.68587 | 37197 ft | 507 kts | 29° |
| 2026-05-07 16:25 | 25.62762 | 7.73240 | 37182 ft | 509 kts | 29° |
| 2026-05-07 16:26 | 25.68447 | 7.77916 | 37171 ft | 507 kts | 29° |
| 2026-05-07 16:26 | 25.74105 | 7.82583 | 37163 ft | 509 kts | 29° |
| 2026-05-07 16:27 | 25.79760 | 7.87246 | 37147 ft | 506 kts | 29° |
| 2026-05-07 16:27 | 25.85396 | 7.91898 | 37140 ft | 505 kts | 29° |
| 2026-05-07 16:28 | 25.91017 | 7.96543 | 37117 ft | 505 kts | 29° |
| 2026-05-07 16:28 | 25.96670 | 8.01230 | 37079 ft | 507 kts | 29° |
| 2026-05-07 16:29 | 26.02363 | 8.05936 | 37053 ft | 507 kts | 29° |
| 2026-05-07 16:29 | 26.08012 | 8.10586 | 37055 ft | 506 kts | 29° |
| 2026-05-07 16:30 | 26.13668 | 8.15224 | 37041 ft | 506 kts | 29° |
| 2026-05-07 16:30 | 26.19376 | 8.19909 | 37021 ft | 507 kts | 29° |
| 2026-05-07 16:31 | 26.25040 | 8.24573 | 36995 ft | 507 kts | 29° |
| 2026-05-07 16:31 | 26.30658 | 8.29224 | 36989 ft | 503 kts | 29° |
| 2026-05-07 16:32 | 26.36290 | 8.33878 | 36969 ft | 508 kts | 29° |
| 2026-05-07 16:32 | 26.41986 | 8.38590 | 36960 ft | 508 kts | 29° |
| 2026-05-07 16:33 | 26.47628 | 8.43279 | 36946 ft | 501 kts | 29° |
| 2026-05-07 16:33 | 26.53261 | 8.47939 | 36940 ft | 509 kts | 29° |
| 2026-05-07 16:34 | 26.58955 | 8.52659 | 36927 ft | 510 kts | 29° |
| 2026-05-07 16:34 | 26.64636 | 8.57383 | 36924 ft | 503 kts | 29° |
| 2026-05-07 16:35 | 26.70259 | 8.62062 | 36917 ft | 506 kts | 29° |
| 2026-05-07 16:35 | 26.75959 | 8.66641 | 36911 ft | 506 kts | 27° |
| 2026-05-07 16:36 | 26.81812 | 8.71024 | 36891 ft | 506 kts | 26° |
| 2026-05-07 16:36 | 26.87684 | 8.75421 | 36888 ft | 506 kts | 27° |
| 2026-05-07 16:37 | 26.93508 | 8.79820 | 36885 ft | 504 kts | 27° |
| 2026-05-07 16:37 | 26.99351 | 8.84241 | 36875 ft | 510 kts | 27° |
| 2026-05-07 16:38 | 27.05226 | 8.88685 | 36867 ft | 508 kts | 27° |
| 2026-05-07 16:38 | 27.11052 | 8.93079 | 36870 ft | 505 kts | 26° |
| 2026-05-07 16:39 | 27.16892 | 8.97482 | 36886 ft | 505 kts | 26° |
| 2026-05-07 16:39 | 27.22713 | 9.01876 | 36895 ft | 508 kts | 26° |
| 2026-05-07 16:40 | 27.28568 | 9.06311 | 36897 ft | 502 kts | 26° |
| 2026-05-07 16:40 | 27.34352 | 9.10711 | 36903 ft | 506 kts | 27° |
| 2026-05-07 16:41 | 27.40193 | 9.15148 | 36907 ft | 504 kts | 26° |
| 2026-05-07 16:41 | 27.46039 | 9.19587 | 36916 ft | 509 kts | 26° |
| 2026-05-07 16:42 | 27.51855 | 9.24021 | 36917 ft | 503 kts | 27° |
| 2026-05-07 16:42 | 27.57659 | 9.28456 | 36913 ft | 508 kts | 26° |
| 2026-05-07 16:43 | 27.63529 | 9.32938 | 36914 ft | 507 kts | 26° |
| 2026-05-07 16:43 | 27.69358 | 9.37394 | 36913 ft | 503 kts | 26° |
| 2026-05-07 16:44 | 27.75137 | 9.41820 | 36913 ft | 507 kts | 27° |
| 2026-05-07 16:44 | 27.80983 | 9.46295 | 36909 ft | 507 kts | 27° |
| 2026-05-07 16:45 | 27.86805 | 9.50763 | 36907 ft | 506 kts | 27° |
| 2026-05-07 16:45 | 27.92617 | 9.55238 | 36900 ft | 504 kts | 27° |
| 2026-05-07 16:46 | 27.98431 | 9.59717 | 36899 ft | 501 kts | 27° |
| 2026-05-07 16:46 | 28.04201 | 9.64156 | 36914 ft | 504 kts | 27° |
| 2026-05-07 16:47 | 28.10178 | 9.68237 | 36915 ft | 502 kts | 21° |
| 2026-05-07 16:47 | 28.16321 | 9.71926 | 36912 ft | 496 kts | 20° |
| 2026-05-07 16:48 | 28.22439 | 9.75575 | 36919 ft | 496 kts | 20° |
| 2026-05-07 16:48 | 28.28556 | 9.79242 | 36922 ft | 498 kts | 20° |
| 2026-05-07 16:49 | 28.34643 | 9.82915 | 36931 ft | 494 kts | 20° |
| 2026-05-07 16:49 | 28.40758 | 9.86605 | 36934 ft | 498 kts | 21° |
| 2026-05-07 16:50 | 28.46842 | 9.90286 | 36940 ft | 495 kts | 20° |
| 2026-05-07 16:50 | 28.52951 | 9.93984 | 36941 ft | 499 kts | 21° |
| 2026-05-07 16:51 | 28.59074 | 9.97708 | 36950 ft | 495 kts | 20° |
| 2026-05-07 16:51 | 28.65164 | 10.01407 | 36949 ft | 497 kts | 20° |
| 2026-05-07 16:52 | 28.71277 | 10.05127 | 36957 ft | 496 kts | 20° |
| 2026-05-07 16:52 | 28.77323 | 10.08812 | 36954 ft | 495 kts | 20° |
| 2026-05-07 16:53 | 28.83383 | 10.12504 | 36948 ft | 496 kts | 20° |
| 2026-05-07 16:53 | 28.89436 | 10.16207 | 36949 ft | 492 kts | 20° |
| 2026-05-07 16:54 | 28.95507 | 10.19926 | 36948 ft | 492 kts | 20° |
| 2026-05-07 16:54 | 29.01561 | 10.23626 | 36948 ft | 496 kts | 20° |
| 2026-05-07 16:55 | 29.07608 | 10.27335 | 36944 ft | 494 kts | 21° |
| 2026-05-07 16:55 | 29.13691 | 10.31075 | 36948 ft | 495 kts | 20° |
| 2026-05-07 16:56 | 29.19752 | 10.34800 | 36948 ft | 494 kts | 20° |
| 2026-05-07 16:56 | 29.28836 | 10.40397 | 36953 ft | 494 kts | 21° |
| 2026-05-07 16:57 | 29.34879 | 10.44127 | 36956 ft | 493 kts | 21° |
| 2026-05-07 16:57 | 29.39910 | 10.47232 | 36951 ft | 495 kts | 21° |
| 2026-05-07 16:58 | 29.46985 | 10.51610 | 36950 ft | 493 kts | 21° |
| 2026-05-07 16:58 | 29.53048 | 10.55365 | 36949 ft | 496 kts | 21° |
| 2026-05-07 16:59 | 29.59112 | 10.59131 | 36951 ft | 494 kts | 21° |
| 2026-05-07 16:59 | 29.65186 | 10.62900 | 36952 ft | 495 kts | 21° |
| 2026-05-07 17:00 | 29.71214 | 10.66653 | 36943 ft | 496 kts | 22° |
| 2026-05-07 17:00 | 29.77288 | 10.70436 | 36948 ft | 496 kts | 22° |
| 2026-05-07 17:01 | 29.83345 | 10.74212 | 36940 ft | 496 kts | 21° |
| 2026-05-07 17:01 | 29.89405 | 10.78002 | 36941 ft | 496 kts | 22° |
| 2026-05-07 17:02 | 29.95501 | 10.81814 | 36941 ft | 496 kts | 22° |
| 2026-05-07 17:02 | 30.01520 | 10.85591 | 36936 ft | 496 kts | 22° |
| 2026-05-07 17:03 | 30.07615 | 10.89411 | 36939 ft | 496 kts | 22° |
| 2026-05-07 17:03 | 30.13699 | 10.93233 | 36940 ft | 495 kts | 22° |
| 2026-05-07 17:04 | 30.19744 | 10.97034 | 36946 ft | 495 kts | 22° |
| 2026-05-07 17:04 | 30.25819 | 11.00861 | 36948 ft | 497 kts | 22° |
| 2026-05-07 17:05 | 30.31900 | 11.04701 | 36946 ft | 495 kts | 22° |
| 2026-05-07 17:05 | 30.37946 | 11.08525 | 36942 ft | 494 kts | 22° |
| 2026-05-07 17:06 | 30.43937 | 11.12314 | 36945 ft | 493 kts | 22° |
| 2026-05-07 17:06 | 30.50012 | 11.16163 | 36951 ft | 497 kts | 22° |
| 2026-05-07 17:07 | 30.56029 | 11.19984 | 36954 ft | 494 kts | 22° |
| 2026-05-07 17:07 | 30.62084 | 11.23826 | 36959 ft | 495 kts | 22° |
| 2026-05-07 17:08 | 30.68072 | 11.27636 | 36962 ft | 492 kts | 22° |
| 2026-05-07 17:08 | 30.74095 | 11.31464 | 36960 ft | 494 kts | 23° |
| 2026-05-07 17:09 | 30.80071 | 11.35279 | 36953 ft | 490 kts | 22° |
| 2026-05-07 17:09 | 30.86107 | 11.39134 | 36954 ft | 492 kts | 22° |
| 2026-05-07 17:10 | 30.92072 | 11.42945 | 36957 ft | 491 kts | 23° |
| 2026-05-07 17:10 | 30.98078 | 11.46794 | 36957 ft | 489 kts | 22° |
| 2026-05-07 17:11 | 31.04034 | 11.50613 | 36955 ft | 491 kts | 22° |
| 2026-05-07 17:11 | 31.10002 | 11.54447 | 36958 ft | 490 kts | 22° |
| 2026-05-07 17:12 | 31.15958 | 11.58279 | 36955 ft | 490 kts | 23° |
| 2026-05-07 17:12 | 31.21946 | 11.62133 | 36953 ft | 492 kts | 22° |
| 2026-05-07 17:13 | 31.27942 | 11.66000 | 36955 ft | 489 kts | 23° |
| 2026-05-07 17:13 | 31.33889 | 11.69845 | 36959 ft | 491 kts | 23° |
| 2026-05-07 17:14 | 31.39885 | 11.73726 | 36954 ft | 490 kts | 24° |
| 2026-05-07 17:14 | 31.45828 | 11.77574 | 36953 ft | 491 kts | 24° |
| 2026-05-07 17:15 | 31.51795 | 11.81445 | 36970 ft | 491 kts | 24° |
| 2026-05-07 17:15 | 31.57770 | 11.85325 | 36969 ft | 490 kts | 24° |
| 2026-05-07 17:16 | 31.63698 | 11.89183 | 36979 ft | 488 kts | 24° |
| 2026-05-07 17:16 | 31.69644 | 11.93056 | 36985 ft | 489 kts | 24° |
| 2026-05-07 17:17 | 31.75596 | 11.96935 | 36979 ft | 487 kts | 24° |
| 2026-05-07 17:17 | 31.81525 | 12.00808 | 36968 ft | 490 kts | 24° |
| 2026-05-07 17:18 | 31.87466 | 12.04699 | 36941 ft | 488 kts | 24° |
| 2026-05-07 17:18 | 31.93368 | 12.08568 | 36932 ft | 489 kts | 24° |
| 2026-05-07 17:19 | 31.99348 | 12.12496 | 36908 ft | 491 kts | 24° |
| 2026-05-07 17:19 | 32.05279 | 12.16395 | 36904 ft | 489 kts | 24° |
| 2026-05-07 17:20 | 32.11243 | 12.20324 | 36891 ft | 491 kts | 24° |
| 2026-05-07 17:20 | 32.17162 | 12.24229 | 36884 ft | 489 kts | 24° |
| 2026-05-07 17:21 | 32.23090 | 12.28146 | 36882 ft | 490 kts | 24° |
| 2026-05-07 17:21 | 32.29080 | 12.32107 | 36880 ft | 491 kts | 24° |
| 2026-05-07 17:22 | 32.35028 | 12.36050 | 36880 ft | 489 kts | 24° |
| 2026-05-07 17:22 | 32.40988 | 12.40000 | 36875 ft | 491 kts | 24° |
| 2026-05-07 17:23 | 32.46912 | 12.43936 | 36875 ft | 491 kts | 24° |
| 2026-05-07 17:23 | 32.52889 | 12.47912 | 36873 ft | 491 kts | 24° |
| 2026-05-07 17:24 | 32.58808 | 12.51859 | 36873 ft | 490 kts | 24° |
| 2026-05-07 17:24 | 32.64781 | 12.55849 | 36874 ft | 491 kts | 24° |
| 2026-05-07 17:25 | 32.70714 | 12.59817 | 36873 ft | 491 kts | 23° |
| 2026-05-07 17:25 | 32.76712 | 12.63693 | 36876 ft | 489 kts | 19° |
| 2026-05-07 17:26 | 32.83002 | 12.66586 | 36880 ft | 480 kts | 12° |
| 2026-05-07 17:26 | 32.89352 | 12.68932 | 36879 ft | 481 kts | 11° |
| 2026-05-07 17:27 | 32.95747 | 12.71275 | 36881 ft | 480 kts | 11° |
| 2026-05-07 17:27 | 33.02132 | 12.73636 | 36881 ft | 479 kts | 11° |
| 2026-05-07 17:28 | 33.08481 | 12.75995 | 36880 ft | 482 kts | 11° |
| 2026-05-07 17:28 | 33.14867 | 12.78339 | 36876 ft | 482 kts | 11° |
| 2026-05-07 17:29 | 33.21278 | 12.80674 | 36876 ft | 480 kts | 11° |
| 2026-05-07 17:29 | 33.27685 | 12.83025 | 36878 ft | 482 kts | 11° |
| 2026-05-07 17:30 | 33.34073 | 12.85368 | 36870 ft | 482 kts | 11° |
| 2026-05-07 17:30 | 33.40461 | 12.87718 | 36866 ft | 480 kts | 11° |
| 2026-05-07 17:31 | 33.46889 | 12.90079 | 37228 ft | 485 kts | 10° |
| 2026-05-07 17:31 | 33.50127 | 12.91273 | 37744 ft | 481 kts | 11° |
| 2026-05-07 17:31 | 33.53328 | 12.92455 | 37852 ft | 484 kts | 10° |
| 2026-05-07 17:32 | 33.59729 | 12.94820 | 37864 ft | 482 kts | 10° |
| 2026-05-07 17:32 | 33.66094 | 12.97178 | 37866 ft | 480 kts | 10° |
| 2026-05-07 17:33 | 33.72516 | 12.99555 | 37864 ft | 481 kts | 10° |
| 2026-05-07 17:33 | 33.78875 | 13.01988 | 37864 ft | 482 kts | 12° |
| 2026-05-07 17:34 | 33.85201 | 13.04616 | 37864 ft | 480 kts | 12° |
| 2026-05-07 17:34 | 33.91499 | 13.07243 | 37863 ft | 481 kts | 12° |
| 2026-05-07 17:35 | 33.97842 | 13.09873 | 37864 ft | 482 kts | 12° |
| 2026-05-07 17:35 | 34.04139 | 13.12485 | 37863 ft | 481 kts | 12° |
| 2026-05-07 17:36 | 34.10497 | 13.15119 | 37856 ft | 482 kts | 12° |
| 2026-05-07 17:36 | 34.16857 | 13.17754 | 37847 ft | 485 kts | 12° |
| 2026-05-07 17:37 | 34.23203 | 13.20396 | 37848 ft | 482 kts | 12° |
| 2026-05-07 17:37 | 34.29516 | 13.23122 | 37853 ft | 486 kts | 17° |
| 2026-05-07 17:38 | 34.35292 | 13.27564 | 37866 ft | 504 kts | 39° |
| 2026-05-07 17:38 | 34.40062 | 13.33892 | 37864 ft | 508 kts | 45° |
| 2026-05-07 17:39 | 34.44599 | 13.40420 | 37871 ft | 510 kts | 46° |
| 2026-05-07 17:39 | 34.49164 | 13.46982 | 37870 ft | 509 kts | 45° |
| 2026-05-07 17:40 | 34.53707 | 13.53476 | 37874 ft | 509 kts | 45° |
| 2026-05-07 17:40 | 34.58273 | 13.59993 | 37884 ft | 509 kts | 45° |
| 2026-05-07 17:41 | 34.62851 | 13.66540 | 37874 ft | 508 kts | 46° |
| 2026-05-07 17:41 | 34.67414 | 13.73075 | 37878 ft | 508 kts | 46° |
| 2026-05-07 17:42 | 34.71984 | 13.79629 | 37878 ft | 509 kts | 46° |
| 2026-05-07 17:42 | 34.76527 | 13.86158 | 37882 ft | 509 kts | 46° |
| 2026-05-07 17:43 | 34.81073 | 13.92703 | 37881 ft | 508 kts | 46° |
| 2026-05-07 17:43 | 34.85630 | 13.99284 | 37880 ft | 508 kts | 46° |
| 2026-05-07 17:44 | 34.90176 | 14.05858 | 37885 ft | 509 kts | 46° |
| 2026-05-07 17:44 | 34.94756 | 14.12473 | 37881 ft | 507 kts | 46° |
| 2026-05-07 17:45 | 34.99265 | 14.19008 | 37876 ft | 504 kts | 46° |
| 2026-05-07 17:45 | 35.03789 | 14.25584 | 37870 ft | 509 kts | 46° |
| 2026-05-07 17:46 | 35.08319 | 14.32183 | 37868 ft | 506 kts | 46° |
| 2026-05-07 17:46 | 35.12815 | 14.38752 | 37872 ft | 506 kts | 45° |
| 2026-05-07 17:47 | 35.17358 | 14.45384 | 37872 ft | 510 kts | 46° |
| 2026-05-07 17:47 | 35.21873 | 14.51976 | 37875 ft | 505 kts | 45° |
| 2026-05-07 17:48 | 35.26363 | 14.58564 | 37876 ft | 510 kts | 46° |
| 2026-05-07 17:48 | 35.30898 | 14.65237 | 37873 ft | 508 kts | 46° |
| 2026-05-07 17:49 | 35.35388 | 14.71852 | 37878 ft | 506 kts | 46° |
| 2026-05-07 17:49 | 35.39860 | 14.78445 | 37877 ft | 508 kts | 46° |
| 2026-05-07 17:50 | 35.44376 | 14.85123 | 37876 ft | 509 kts | 46° |
| 2026-05-07 17:50 | 35.48857 | 14.91767 | 37874 ft | 507 kts | 46° |
| 2026-05-07 17:51 | 35.53381 | 14.98478 | 37867 ft | 511 kts | 46° |
| 2026-05-07 17:51 | 35.57866 | 15.05145 | 37869 ft | 508 kts | 46° |
| 2026-05-07 17:52 | 35.62380 | 15.11876 | 37865 ft | 509 kts | 46° |
| 2026-05-07 17:52 | 35.66872 | 15.18576 | 37865 ft | 511 kts | 46° |
| 2026-05-07 17:53 | 35.71374 | 15.25306 | 37872 ft | 508 kts | 46° |
| 2026-05-07 17:53 | 35.75862 | 15.32037 | 37868 ft | 510 kts | 45° |
| 2026-05-07 17:54 | 35.80331 | 15.38740 | 37866 ft | 507 kts | 46° |
| 2026-05-07 17:54 | 35.84813 | 15.45482 | 37860 ft | 509 kts | 45° |
| 2026-05-07 17:55 | 35.89288 | 15.52230 | 37871 ft | 511 kts | 45° |
| 2026-05-07 17:55 | 35.93762 | 15.58990 | 37880 ft | 509 kts | 45° |
| 2026-05-07 17:56 | 35.98234 | 15.65759 | 37883 ft | 509 kts | 46° |
| 2026-05-07 17:56 | 36.02668 | 15.72488 | 37889 ft | 508 kts | 45° |
| 2026-05-07 17:57 | 36.06390 | 15.78139 | 37882 ft | 509 kts | 46° |
| 2026-05-07 17:57 | 36.11588 | 15.86040 | 37880 ft | 507 kts | 45° |
| 2026-05-07 17:58 | 36.16042 | 15.92825 | 37881 ft | 509 kts | 45° |
| 2026-05-07 17:58 | 36.20457 | 15.99575 | 37883 ft | 508 kts | 46° |
| 2026-05-07 17:59 | 36.24916 | 16.06408 | 37886 ft | 509 kts | 45° |
| 2026-05-07 17:59 | 36.29329 | 16.13184 | 37887 ft | 508 kts | 45° |
| 2026-05-07 18:00 | 36.33774 | 16.20017 | 37887 ft | 510 kts | 45° |
| 2026-05-07 18:00 | 36.38191 | 16.26833 | 37889 ft | 509 kts | 45° |
| 2026-05-07 18:01 | 36.42644 | 16.33708 | 37889 ft | 509 kts | 45° |
| 2026-05-07 18:01 | 36.47077 | 16.40537 | 37890 ft | 510 kts | 44° |
| 2026-05-07 18:02 | 36.54433 | 16.49848 | 37893 ft | 502 kts | 35° |
| 2026-05-07 18:03 | 36.59625 | 16.55654 | 37902 ft | 502 kts | 34° |
| 2026-05-07 18:03 | 36.64827 | 16.61417 | 37909 ft | 501 kts | 34° |
| 2026-05-07 18:04 | 36.70011 | 16.67152 | 37913 ft | 501 kts | 34° |
| 2026-05-07 18:04 | 36.75232 | 16.72935 | 37919 ft | 505 kts | 34° |
| 2026-05-07 18:05 | 36.80458 | 16.78739 | 37916 ft | 503 kts | 34° |
| 2026-05-07 18:05 | 36.85695 | 16.84573 | 37918 ft | 503 kts | 34° |
| 2026-05-07 18:06 | 36.90886 | 16.90361 | 37922 ft | 504 kts | 34° |
| 2026-05-07 18:06 | 36.96111 | 16.96195 | 37926 ft | 501 kts | 34° |
| 2026-05-07 18:07 | 37.01276 | 17.01974 | 37919 ft | 505 kts | 34° |
| 2026-05-07 18:07 | 37.06505 | 17.07838 | 37911 ft | 501 kts | 34° |
| 2026-05-07 18:08 | 37.11647 | 17.13614 | 37919 ft | 500 kts | 34° |
| 2026-05-07 18:08 | 37.16848 | 17.19462 | 37923 ft | 502 kts | 34° |
| 2026-05-07 18:09 | 37.21999 | 17.25275 | 37932 ft | 498 kts | 34° |
| 2026-05-07 18:09 | 37.27123 | 17.31064 | 37931 ft | 497 kts | 34° |
| 2026-05-07 18:10 | 37.32246 | 17.36855 | 37937 ft | 499 kts | 34° |
| 2026-05-07 18:10 | 37.37382 | 17.42678 | 37942 ft | 498 kts | 34° |
| 2026-05-07 18:11 | 37.42523 | 17.48519 | 37950 ft | 498 kts | 34° |
| 2026-05-07 18:11 | 37.47671 | 17.54352 | 37957 ft | 498 kts | 34° |
| 2026-05-07 18:12 | 37.52787 | 17.60180 | 37959 ft | 496 kts | 35° |
| 2026-05-07 18:12 | 37.57869 | 17.65995 | 37965 ft | 495 kts | 35° |
| 2026-05-07 18:13 | 37.62989 | 17.71845 | 37966 ft | 501 kts | 35° |
| 2026-05-07 18:13 | 37.68111 | 17.77744 | 37966 ft | 496 kts | 35° |
| 2026-05-07 18:14 | 37.73201 | 17.83603 | 37967 ft | 496 kts | 34° |
| 2026-05-07 18:14 | 37.78281 | 17.89446 | 37966 ft | 495 kts | 35° |
| 2026-05-07 18:15 | 37.83351 | 17.95305 | 37969 ft | 494 kts | 35° |
| 2026-05-07 18:15 | 37.88408 | 18.01153 | 37971 ft | 496 kts | 35° |
| 2026-05-07 18:16 | 37.93499 | 18.07048 | 37970 ft | 494 kts | 35° |
| 2026-05-07 18:16 | 37.98566 | 18.12930 | 37974 ft | 494 kts | 35° |
| 2026-05-07 18:17 | 38.03609 | 18.18794 | 37972 ft | 496 kts | 35° |
| 2026-05-07 18:17 | 38.08693 | 18.24710 | 37975 ft | 495 kts | 35° |
| 2026-05-07 18:18 | 38.13727 | 18.30586 | 37981 ft | 493 kts | 35° |
| 2026-05-07 18:18 | 38.18816 | 18.36536 | 37981 ft | 496 kts | 35° |
| 2026-05-07 18:19 | 38.23833 | 18.42420 | 37982 ft | 491 kts | 34° |
| 2026-05-07 18:19 | 38.28862 | 18.48320 | 37985 ft | 495 kts | 34° |
| 2026-05-07 18:20 | 38.33922 | 18.54270 | 37989 ft | 493 kts | 34° |
| 2026-05-07 18:20 | 38.38915 | 18.60164 | 37995 ft | 491 kts | 34° |
| 2026-05-07 18:21 | 38.43946 | 18.66093 | 37996 ft | 496 kts | 35° |
| 2026-05-07 18:21 | 38.49005 | 18.72077 | 38002 ft | 493 kts | 34° |
| 2026-05-07 18:22 | 38.53966 | 18.77962 | 38003 ft | 492 kts | 34° |
| 2026-05-07 18:22 | 38.59022 | 18.83965 | 38003 ft | 495 kts | 34° |
| 2026-05-07 18:23 | 38.64076 | 18.89986 | 38007 ft | 497 kts | 34° |
| 2026-05-07 18:23 | 38.69060 | 18.96003 | 38014 ft | 493 kts | 37° |
| 2026-05-07 18:24 | 38.73452 | 19.02839 | 38021 ft | 510 kts | 49° |
| 2026-05-07 18:24 | 38.75284 | 19.06766 | 38239 ft | 517 kts | 55° |
| 2026-05-07 18:24 | 38.76947 | 19.10824 | 38379 ft | 521 kts | 56° |
| 2026-05-07 18:24 | 38.78591 | 19.14965 | 38900 ft | 517 kts | 56° |
| 2026-05-07 18:25 | 38.80217 | 19.19057 | 39011 ft | 518 kts | 56° |
| 2026-05-07 18:25 | 38.83478 | 19.27142 | 39026 ft | 509 kts | 54° |
| 2026-05-07 18:26 | 38.86731 | 19.35177 | 39023 ft | 508 kts | 54° |
| 2026-05-07 18:26 | 38.89975 | 19.43158 | 39021 ft | 509 kts | 54° |
| 2026-05-07 18:27 | 38.93218 | 19.51248 | 39028 ft | 509 kts | 54° |
| 2026-05-07 18:27 | 38.96431 | 19.59298 | 39026 ft | 507 kts | 54° |
| 2026-05-07 18:28 | 38.99651 | 19.67306 | 39039 ft | 508 kts | 55° |
| 2026-05-07 18:28 | 39.02898 | 19.75398 | 39044 ft | 511 kts | 55° |
| 2026-05-07 18:29 | 39.06102 | 19.83489 | 39029 ft | 508 kts | 56° |
| 2026-05-07 18:29 | 39.09305 | 19.91557 | 39043 ft | 507 kts | 55° |
| 2026-05-07 18:30 | 39.12517 | 19.99624 | 39046 ft | 512 kts | 55° |
| 2026-05-07 18:30 | 39.15736 | 20.07788 | 39058 ft | 507 kts | 55° |
| 2026-05-07 18:31 | 39.18920 | 20.15845 | 39062 ft | 507 kts | 56° |
| 2026-05-07 18:31 | 39.22122 | 20.23960 | 39060 ft | 509 kts | 55° |
| 2026-05-07 18:32 | 39.25297 | 20.32051 | 39061 ft | 509 kts | 55° |
| 2026-05-07 18:32 | 39.28506 | 20.40259 | 39069 ft | 513 kts | 54° |
| 2026-05-07 18:33 | 39.31678 | 20.48393 | 39074 ft | 506 kts | 55° |
| 2026-05-07 18:33 | 39.34835 | 20.56521 | 39093 ft | 513 kts | 56° |
| 2026-05-07 18:34 | 39.38008 | 20.64735 | 39109 ft | 510 kts | 55° |
| 2026-05-07 18:34 | 39.41161 | 20.72904 | 39125 ft | 511 kts | 56° |
| 2026-05-07 18:35 | 39.44369 | 20.81177 | 39134 ft | 514 kts | 55° |
| 2026-05-07 18:35 | 39.47523 | 20.89387 | 39136 ft | 511 kts | 55° |
| 2026-05-07 18:36 | 39.50692 | 20.97637 | 39127 ft | 511 kts | 55° |
| 2026-05-07 18:36 | 39.53814 | 21.05804 | 39136 ft | 510 kts | 55° |
| 2026-05-07 18:37 | 39.56973 | 21.14054 | 39163 ft | 513 kts | 54° |
| 2026-05-07 18:37 | 39.60096 | 21.22247 | 39181 ft | 509 kts | 56° |
| 2026-05-07 18:38 | 39.63225 | 21.30527 | 39189 ft | 513 kts | 55° |
| 2026-05-07 18:38 | 39.66362 | 21.38815 | 39170 ft | 509 kts | 55° |
| 2026-05-07 18:39 | 39.69479 | 21.47069 | 39152 ft | 514 kts | 54° |
| 2026-05-07 18:39 | 39.72583 | 21.55331 | 39136 ft | 510 kts | 56° |
| 2026-05-07 18:40 | 39.75696 | 21.63631 | 39130 ft | 512 kts | 55° |
| 2026-05-07 18:40 | 39.78785 | 21.71894 | 39135 ft | 512 kts | 56° |
| 2026-05-07 18:41 | 39.81905 | 21.80240 | 39132 ft | 516 kts | 56° |
| 2026-05-07 18:41 | 39.85027 | 21.88616 | 39126 ft | 511 kts | 56° |
| 2026-05-07 18:42 | 39.88125 | 21.96958 | 39124 ft | 513 kts | 55° |
| 2026-05-07 18:42 | 39.91211 | 22.05342 | 39122 ft | 516 kts | 56° |
| 2026-05-07 18:43 | 39.94313 | 22.13742 | 39118 ft | 513 kts | 56° |
| 2026-05-07 18:43 | 39.97385 | 22.22085 | 39123 ft | 513 kts | 55° |
| 2026-05-07 18:44 | 40.00477 | 22.30491 | 39119 ft | 516 kts | 55° |
| 2026-05-07 18:44 | 40.03556 | 22.38912 | 39115 ft | 516 kts | 54° |
| 2026-05-07 18:45 | 40.06620 | 22.47327 | 39108 ft | 515 kts | 55° |
| 2026-05-07 18:45 | 40.09659 | 22.55686 | 39095 ft | 510 kts | 54° |
| 2026-05-07 18:46 | 40.12677 | 22.64006 | 39082 ft | 511 kts | 54° |
| 2026-05-07 18:46 | 40.15745 | 22.72459 | 39075 ft | 517 kts | 55° |
| 2026-05-07 18:47 | 40.18775 | 22.80878 | 39066 ft | 511 kts | 55° |
| 2026-05-07 18:47 | 40.21807 | 22.89285 | 39073 ft | 514 kts | 54° |
| 2026-05-07 18:48 | 40.24847 | 22.97748 | 39076 ft | 516 kts | 54° |
| 2026-05-07 18:48 | 40.27855 | 23.06193 | 39073 ft | 508 kts | 54° |
| 2026-05-07 18:49 | 40.30819 | 23.14523 | 39081 ft | 509 kts | 54° |
| 2026-05-07 18:49 | 40.33832 | 23.22931 | 39087 ft | 513 kts | 54° |
| 2026-05-07 18:50 | 40.36852 | 23.31427 | 39084 ft | 516 kts | 56° |
| 2026-05-07 18:50 | 40.39811 | 23.39914 | 39088 ft | 513 kts | 55° |
| 2026-05-07 18:51 | 40.42770 | 23.48358 | 39087 ft | 512 kts | 55° |
| 2026-05-07 18:51 | 40.45754 | 23.56803 | 39085 ft | 507 kts | 54° |
| 2026-05-07 18:52 | 40.48709 | 23.65188 | 39093 ft | 512 kts | 55° |
| 2026-05-07 18:52 | 40.51682 | 23.73671 | 39089 ft | 511 kts | 57° |
| 2026-05-07 18:53 | 40.54625 | 23.82154 | 39073 ft | 508 kts | 57° |
| 2026-05-07 18:53 | 40.57532 | 23.90580 | 39080 ft | 512 kts | 55° |
| 2026-05-07 18:54 | 40.60341 | 23.99180 | 39084 ft | 516 kts | 61° |
| 2026-05-07 18:54 | 40.62507 | 24.08175 | 39076 ft | 514 kts | 65° |
| 2026-05-07 18:55 | 40.64571 | 24.17209 | 39083 ft | 519 kts | 64° |
| 2026-05-07 18:55 | 40.66656 | 24.26222 | 39085 ft | 520 kts | 65° |
| 2026-05-07 18:56 | 40.68734 | 24.35306 | 39089 ft | 514 kts | 66° |
| 2026-05-07 18:56 | 40.70799 | 24.44316 | 39086 ft | 515 kts | 64° |
| 2026-05-07 18:57 | 40.72873 | 24.53285 | 39092 ft | 517 kts | 65° |
| 2026-05-07 18:57 | 40.74926 | 24.62270 | 39087 ft | 509 kts | 66° |
| 2026-05-07 18:58 | 40.76981 | 24.71170 | 39096 ft | 510 kts | 66° |
| 2026-05-07 18:58 | 40.79029 | 24.80136 | 39095 ft | 514 kts | 67° |
| 2026-05-07 18:59 | 40.81076 | 24.89113 | 39091 ft | 512 kts | 66° |
| 2026-05-07 18:59 | 40.83105 | 24.98015 | 39090 ft | 506 kts | 66° |
| 2026-05-07 19:00 | 40.85120 | 25.06946 | 39092 ft | 507 kts | 67° |
| 2026-05-07 19:00 | 40.87111 | 25.15847 | 39091 ft | 508 kts | 67° |
| 2026-05-07 19:01 | 40.89073 | 25.24669 | 39093 ft | 500 kts | 67° |
| 2026-05-07 19:01 | 40.91033 | 25.33473 | 39090 ft | 502 kts | 67° |
| 2026-05-07 19:02 | 40.93000 | 25.42292 | 39094 ft | 501 kts | 68° |
| 2026-05-07 19:02 | 40.94951 | 25.51098 | 39099 ft | 498 kts | 68° |
| 2026-05-07 19:03 | 40.96883 | 25.59846 | 39097 ft | 498 kts | 67° |
| 2026-05-07 19:03 | 40.98804 | 25.68601 | 39105 ft | 493 kts | 68° |
| 2026-05-07 19:04 | 41.00705 | 25.77264 | 39103 ft | 495 kts | 68° |
| 2026-05-07 19:04 | 41.02602 | 25.85964 | 39094 ft | 492 kts | 69° |
| 2026-05-07 19:05 | 41.04489 | 25.94662 | 38809 ft | 498 kts | 69° |
| 2026-05-07 19:05 | 41.05455 | 25.99105 | 38147 ft | 505 kts | 69° |
| 2026-05-07 19:05 | 41.06403 | 26.03494 | 37783 ft | 496 kts | 70° |
| 2026-05-07 19:05 | 41.07330 | 26.07816 | 37581 ft | 485 kts | 70° |
| 2026-05-07 19:06 | 41.08255 | 26.12117 | 36934 ft | 484 kts | 70° |
| 2026-05-07 19:06 | 41.10061 | 26.20737 | 35035 ft | 491 kts | 74° |
| 2026-05-07 19:06 | 41.10692 | 26.25135 | 33999 ft | 497 kts | 81° |
| 2026-05-07 19:07 | 41.10929 | 26.29662 | 32919 ft | 496 kts | 90° |
| 2026-05-07 19:07 | 41.10670 | 26.34187 | 31862 ft | 492 kts | 97° |
| 2026-05-07 19:07 | 41.10105 | 26.38616 | 30692 ft | 490 kts | 102° |
| 2026-05-07 19:07 | 41.09181 | 26.42952 | 29473 ft | 487 kts | 109° |
| 2026-05-07 19:08 | 41.07997 | 26.47078 | 28272 ft | 484 kts | 112° |
| 2026-05-07 19:08 | 41.06715 | 26.51134 | 27080 ft | 481 kts | 113° |
| 2026-05-07 19:08 | 41.05419 | 26.55187 | 25883 ft | 477 kts | 112° |
| 2026-05-07 19:08 | 41.04280 | 26.59236 | 25161 ft | 462 kts | 106° |
| 2026-05-07 19:09 | 41.03688 | 26.63289 | 25086 ft | 435 kts | 93° |
| 2026-05-07 19:09 | 41.03595 | 26.67183 | 25080 ft | 415 kts | 89° |
| 2026-05-07 19:09 | 41.03635 | 26.70935 | 24817 ft | 418 kts | 88° |
| 2026-05-07 19:09 | 41.03703 | 26.74810 | 24205 ft | 425 kts | 89° |
| 2026-05-07 19:10 | 41.03593 | 26.78728 | 23569 ft | 423 kts | 94° |
| 2026-05-07 19:10 | 41.03312 | 26.82553 | 22926 ft | 420 kts | 95° |
| 2026-05-07 19:10 | 41.02990 | 26.86361 | 22297 ft | 417 kts | 95° |
| 2026-05-07 19:10 | 41.02671 | 26.90170 | 21688 ft | 413 kts | 95° |
| 2026-05-07 19:11 | 41.02369 | 26.93885 | 21188 ft | 407 kts | 95° |
| 2026-05-07 19:11 | 41.02078 | 26.97550 | 20736 ft | 400 kts | 95° |
| 2026-05-07 19:11 | 41.01796 | 27.01162 | 20364 ft | 392 kts | 95° |
| 2026-05-07 19:11 | 41.01522 | 27.04728 | 20035 ft | 388 kts | 95° |
| 2026-05-07 19:12 | 41.01250 | 27.08276 | 19786 ft | 389 kts | 95° |
| 2026-05-07 19:12 | 41.00981 | 27.11822 | 19545 ft | 391 kts | 95° |
| 2026-05-07 19:12 | 41.00706 | 27.15429 | 19290 ft | 390 kts | 95° |
| 2026-05-07 19:12 | 41.00440 | 27.18939 | 19023 ft | 388 kts | 95° |
| 2026-05-07 19:13 | 41.00170 | 27.22486 | 18654 ft | 388 kts | 95° |
| 2026-05-07 19:13 | 40.99898 | 27.26048 | 18280 ft | 384 kts | 95° |
| 2026-05-07 19:13 | 40.99632 | 27.29510 | 17917 ft | 380 kts | 94° |
| 2026-05-07 19:13 | 40.99367 | 27.32964 | 17556 ft | 378 kts | 95° |
| 2026-05-07 19:14 | 40.99100 | 27.36429 | 17193 ft | 376 kts | 95° |
| 2026-05-07 19:14 | 40.98836 | 27.39847 | 16830 ft | 373 kts | 95° |
| 2026-05-07 19:14 | 40.98574 | 27.43227 | 16473 ft | 373 kts | 95° |
| 2026-05-07 19:14 | 40.98311 | 27.46608 | 16114 ft | 371 kts | 95° |
| 2026-05-07 19:15 | 40.98045 | 27.50004 | 15748 ft | 368 kts | 95° |
| 2026-05-07 19:15 | 40.97783 | 27.53345 | 15388 ft | 365 kts | 95° |
| 2026-05-07 19:15 | 40.97523 | 27.56640 | 15030 ft | 364 kts | 95° |
| 2026-05-07 19:15 | 40.97258 | 27.59989 | 14617 ft | 365 kts | 95° |
| 2026-05-07 19:16 | 40.96995 | 27.63302 | 14133 ft | 363 kts | 95° |
| 2026-05-07 19:16 | 40.96734 | 27.66578 | 13646 ft | 358 kts | 96° |
| 2026-05-07 19:16 | 40.96473 | 27.69841 | 13161 ft | 355 kts | 96° |
| 2026-05-07 19:16 | 40.96216 | 27.73046 | 12832 ft | 348 kts | 96° |
| 2026-05-07 19:17 | 40.95964 | 27.76180 | 12503 ft | 348 kts | 96° |
| 2026-05-07 19:17 | 40.95708 | 27.79354 | 12132 ft | 348 kts | 96° |
| 2026-05-07 19:17 | 40.95451 | 27.82528 | 11768 ft | 346 kts | 96° |
| 2026-05-07 19:17 | 40.95194 | 27.85683 | 11398 ft | 343 kts | 96° |
| 2026-05-07 19:18 | 40.94941 | 27.88784 | 11031 ft | 341 kts | 96° |
| 2026-05-07 19:18 | 40.94688 | 27.91876 | 10663 ft | 338 kts | 96° |
| 2026-05-07 19:18 | 40.94437 | 27.94932 | 10293 ft | 331 kts | 96° |
| 2026-05-07 19:18 | 40.94190 | 27.97923 | 9926 ft | 325 kts | 96° |
| 2026-05-07 19:19 | 40.93948 | 28.00852 | 9554 ft | 320 kts | 96° |
| 2026-05-07 19:19 | 40.93708 | 28.03746 | 9179 ft | 315 kts | 96° |
| 2026-05-07 19:19 | 40.93470 | 28.06600 | 8824 ft | 310 kts | 97° |
| 2026-05-07 19:19 | 40.93237 | 28.09395 | 8495 ft | 305 kts | 96° |
| 2026-05-07 19:20 | 40.93006 | 28.12158 | 8180 ft | 299 kts | 96° |
| 2026-05-07 19:20 | 40.92779 | 28.14863 | 7879 ft | 295 kts | 96° |
| 2026-05-07 19:20 | 40.92556 | 28.17512 | 7603 ft | 292 kts | 97° |
| 2026-05-07 19:20 | 40.92333 | 28.20156 | 7365 ft | 290 kts | 97° |
| 2026-05-07 19:21 | 40.92108 | 28.22807 | 7140 ft | 291 kts | 97° |
| 2026-05-07 19:21 | 40.91882 | 28.25473 | 6910 ft | 291 kts | 97° |
| 2026-05-07 19:21 | 40.91657 | 28.28119 | 6690 ft | 290 kts | 97° |
| 2026-05-07 19:21 | 40.91433 | 28.30746 | 6468 ft | 289 kts | 97° |
| 2026-05-07 19:22 | 40.91207 | 28.33383 | 6239 ft | 289 kts | 97° |
| 2026-05-07 19:22 | 40.90980 | 28.36022 | 6013 ft | 288 kts | 97° |
| 2026-05-07 19:22 | 40.90756 | 28.38638 | 5794 ft | 287 kts | 97° |
| 2026-05-07 19:22 | 40.90532 | 28.41234 | 5568 ft | 286 kts | 97° |
| 2026-05-07 19:23 | 40.90306 | 28.43837 | 5339 ft | 285 kts | 97° |
| 2026-05-07 19:23 | 40.90080 | 28.46447 | 5119 ft | 286 kts | 97° |
| 2026-05-07 19:23 | 40.89856 | 28.49026 | 4981 ft | 282 kts | 97° |
| 2026-05-07 19:23 | 40.89630 | 28.51609 | 4975 ft | 282 kts | 97° |
| 2026-05-07 19:24 | 40.89404 | 28.54196 | 4967 ft | 285 kts | 97° |
| 2026-05-07 19:24 | 40.89255 | 28.56797 | 4965 ft | 284 kts | 88° |
| 2026-05-07 19:24 | 40.89605 | 28.59335 | 4958 ft | 283 kts | 64° |
| 2026-05-07 19:24 | 40.90632 | 28.61459 | 4978 ft | 265 kts | 49° |
| 2026-05-07 19:25 | 40.91756 | 28.63278 | 4960 ft | 247 kts | 49° |
| 2026-05-07 19:25 | 40.92791 | 28.64996 | 4976 ft | 235 kts | 49° |
| 2026-05-07 19:25 | 40.93802 | 28.66718 | 4967 ft | 237 kts | 51° |
| 2026-05-07 19:25 | 40.94801 | 28.68444 | 4969 ft | 238 kts | 51° |
| 2026-05-07 19:26 | 40.95801 | 28.70177 | 4969 ft | 237 kts | 51° |
| 2026-05-07 19:26 | 40.96835 | 28.71874 | 4968 ft | 235 kts | 43° |
| 2026-05-07 19:26 | 40.98148 | 28.73084 | 4970 ft | 226 kts | 16° |
| 2026-05-07 19:26 | 40.99665 | 28.73317 | 4979 ft | 218 kts | 355° |
| 2026-05-07 19:27 | 41.01197 | 28.73257 | 4974 ft | 219 kts | 355° |
| 2026-05-07 19:27 | 41.02710 | 28.73235 | 4955 ft | 220 kts | 355° |